sensor_id;sensor_type;location;lat;lon;timestamp;temperature;humidity
64650;HTU21D;51061;45.258;38.112;2022-09-09T00:09:26;13.60;58.24
64650;HTU21D;51061;45.258;38.112;2022-09-09T00:15:05;13.60;58.22
64650;HTU21D;51061;45.258;38.112;2022-09-09T00:20:12;13.62;58.27
64650;HTU21D;51061;45.258;38.112;2022-09-09T00:22:46;13.64;58.35
64650;HTU21D;51061;45.258;38.112;2022-09-09T00:25:28;13.65;58.22
64650;HTU21D;51061;45.258;38.112;2022-09-09T00:27:56;13.65;58.42
64650;HTU21D;51061;45.258;38.112;2022-09-09T00:30:26;13.55;57.93
64650;HTU21D;51061;45.258;38.112;2022-09-09T00:32:59;13.61;58.14
64650;HTU21D;51061;45.258;38.112;2022-09-09T00:35:34;13.61;58.33
64650;HTU21D;51061;45.258;38.112;2022-09-09T00:38:14;13.60;58.60
64650;HTU21D;51061;45.258;38.112;2022-09-09T00:41:07;13.60;58.64
64650;HTU21D;51061;45.258;38.112;2022-09-09T00:43:36;13.56;58.73
64650;HTU21D;51061;45.258;38.112;2022-09-09T00:49:11;13.52;58.99
64650;HTU21D;51061;45.258;38.112;2022-09-09T00:55:07;13.39;59.04
64650;HTU21D;51061;45.258;38.112;2022-09-09T00:57:36;13.35;59.44
64650;HTU21D;51061;45.258;38.112;2022-09-09T01:00:19;13.31;59.64
64650;HTU21D;51061;45.258;38.112;2022-09-09T01:03:00;13.26;60.03
64650;HTU21D;51061;45.258;38.112;2022-09-09T01:14:48;13.00;60.83
64650;HTU21D;51061;45.258;38.112;2022-09-09T01:17:25;12.97;61.05
64650;HTU21D;51061;45.258;38.112;2022-09-09T01:20:21;12.99;61.12
64650;HTU21D;51061;45.258;38.112;2022-09-09T01:28:47;12.94;62.02
64650;HTU21D;51061;45.258;38.112;2022-09-09T01:31:23;12.91;62.22
64650;HTU21D;51061;45.258;38.112;2022-09-09T01:33:52;12.89;62.57
64650;HTU21D;51061;45.258;38.112;2022-09-09T01:36:29;12.88;62.79
64650;HTU21D;51061;45.258;38.112;2022-09-09T01:38:59;12.86;63.21
64650;HTU21D;51061;45.258;38.112;2022-09-09T01:41:26;12.84;63.31
64650;HTU21D;51061;45.258;38.112;2022-09-09T01:44:02;12.79;63.39
64650;HTU21D;51061;45.258;38.112;2022-09-09T01:46:30;12.75;63.44
64650;HTU21D;51061;45.258;38.112;2022-09-09T01:48:59;12.72;63.34
64650;HTU21D;51061;45.258;38.112;2022-09-09T01:51:27;12.70;63.20
64650;HTU21D;51061;45.258;38.112;2022-09-09T01:53:53;12.70;63.01
64650;HTU21D;51061;45.258;38.112;2022-09-09T02:02:18;12.65;62.36
64650;HTU21D;51061;45.258;38.112;2022-09-09T02:05:21;12.67;62.34
64650;HTU21D;51061;45.258;38.112;2022-09-09T02:08:09;12.70;62.28
64650;HTU21D;51061;45.258;38.112;2022-09-09T02:10:53;12.70;62.18
64650;HTU21D;51061;45.258;38.112;2022-09-09T02:13:35;12.70;62.19
64650;HTU21D;51061;45.258;38.112;2022-09-09T02:17:01;12.71;62.08
64650;HTU21D;51061;45.258;38.112;2022-09-09T02:19:20;12.67;62.04
64650;HTU21D;51061;45.258;38.112;2022-09-09T02:22:16;12.67;62.21
64650;HTU21D;51061;45.258;38.112;2022-09-09T02:24:44;12.67;62.21
64650;HTU21D;51061;45.258;38.112;2022-09-09T02:27:24;12.66;62.24
64650;HTU21D;51061;45.258;38.112;2022-09-09T02:29:53;12.67;62.21
64650;HTU21D;51061;45.258;38.112;2022-09-09T02:32:32;12.69;62.14
64650;HTU21D;51061;45.258;38.112;2022-09-09T02:35:07;12.72;62.14
64650;HTU21D;51061;45.258;38.112;2022-09-09T02:37:37;12.72;62.05
64650;HTU21D;51061;45.258;38.112;2022-09-09T02:40:05;12.75;62.10
64650;HTU21D;51061;45.258;38.112;2022-09-09T02:42:39;12.77;62.04
64650;HTU21D;51061;45.258;38.112;2022-09-09T02:45:07;12.78;62.05
64650;HTU21D;51061;45.258;38.112;2022-09-09T02:58:18;12.90;61.62
64650;HTU21D;51061;45.258;38.112;2022-09-09T03:00:53;12.92;61.59
64650;HTU21D;51061;45.258;38.112;2022-09-09T03:03:20;12.94;61.54
64650;HTU21D;51061;45.258;38.112;2022-09-09T03:05:49;12.95;61.50
64650;HTU21D;51061;45.258;38.112;2022-09-09T03:08:15;12.87;61.21
64650;HTU21D;51061;45.258;38.112;2022-09-09T03:10:43;12.91;61.27
64650;HTU21D;51061;45.258;38.112;2022-09-09T03:13:12;12.94;61.41
64650;HTU21D;51061;45.258;38.112;2022-09-09T03:15:41;12.95;61.44
64650;HTU21D;51061;45.258;38.112;2022-09-09T03:18:13;13.01;61.42
64650;HTU21D;51061;45.258;38.112;2022-09-09T03:20:39;13.02;61.40
64650;HTU21D;51061;45.258;38.112;2022-09-09T03:23:07;13.06;61.44
64650;HTU21D;51061;45.258;38.112;2022-09-09T03:25:33;13.10;61.34
64650;HTU21D;51061;45.258;38.112;2022-09-09T03:28:01;13.16;61.38
64650;HTU21D;51061;45.258;38.112;2022-09-09T03:30:28;13.20;61.27
64650;HTU21D;51061;45.258;38.112;2022-09-09T03:32:55;13.24;61.15
64650;HTU21D;51061;45.258;38.112;2022-09-09T03:35:26;13.31;61.09
64650;HTU21D;51061;45.258;38.112;2022-09-09T03:37:52;13.35;61.04
64650;HTU21D;51061;45.258;38.112;2022-09-09T03:40:18;13.30;60.73
64650;HTU21D;51061;45.258;38.112;2022-09-09T03:42:45;13.37;60.85
64650;HTU21D;51061;45.258;38.112;2022-09-09T03:45:12;13.41;60.92
64650;HTU21D;51061;45.258;38.112;2022-09-09T03:47:40;13.49;60.88
64650;HTU21D;51061;45.258;38.112;2022-09-09T03:50:08;13.59;60.81
64650;HTU21D;51061;45.258;38.112;2022-09-09T03:52:39;13.67;60.71
64650;HTU21D;51061;45.258;38.112;2022-09-09T03:55:09;13.76;60.56
64650;HTU21D;51061;45.258;38.112;2022-09-09T03:57:36;13.85;60.51
64650;HTU21D;51061;45.258;38.112;2022-09-09T04:00:07;13.94;60.41
64650;HTU21D;51061;45.258;38.112;2022-09-09T04:02:42;14.01;60.29
64650;HTU21D;51061;45.258;38.112;2022-09-09T04:05:12;14.13;60.21
64650;HTU21D;51061;45.258;38.112;2022-09-09T04:07:42;14.24;60.18
64650;HTU21D;51061;45.258;38.112;2022-09-09T04:10:08;14.32;60.16
64650;HTU21D;51061;45.258;38.112;2022-09-09T04:12:37;14.38;60.06
64650;HTU21D;51061;45.258;38.112;2022-09-09T04:15:03;14.42;59.99
64650;HTU21D;51061;45.258;38.112;2022-09-09T04:17:30;14.48;60.01
64650;HTU21D;51061;45.258;38.112;2022-09-09T04:19:56;14.55;59.87
64650;HTU21D;51061;45.258;38.112;2022-09-09T04:22:23;14.62;59.86
64650;HTU21D;51061;45.258;38.112;2022-09-09T04:24:49;14.70;59.80
64650;HTU21D;51061;45.258;38.112;2022-09-09T04:27:18;14.79;59.59
64650;HTU21D;51061;45.258;38.112;2022-09-09T04:29:45;14.88;59.43
64650;HTU21D;51061;45.258;38.112;2022-09-09T04:32:12;14.97;59.25
64650;HTU21D;51061;45.258;38.112;2022-09-09T04:34:39;15.08;59.11
64650;HTU21D;51061;45.258;38.112;2022-09-09T04:37:09;15.19;58.99
64650;HTU21D;51061;45.258;38.112;2022-09-09T04:39:36;15.27;58.93
64650;HTU21D;51061;45.258;38.112;2022-09-09T04:42:03;15.28;58.94
64650;HTU21D;51061;45.258;38.112;2022-09-09T04:44:29;15.16;58.78
64650;HTU21D;51061;45.258;38.112;2022-09-09T04:46:56;15.16;58.90
64650;HTU21D;51061;45.258;38.112;2022-09-09T04:49:22;15.14;58.87
64650;HTU21D;51061;45.258;38.112;2022-09-09T04:51:49;15.25;58.73
64650;HTU21D;51061;45.258;38.112;2022-09-09T04:54:16;15.40;58.45
64650;HTU21D;51061;45.258;38.112;2022-09-09T04:56:44;15.55;58.17
64650;HTU21D;51061;45.258;38.112;2022-09-09T04:59:11;15.74;57.72
64650;HTU21D;51061;45.258;38.112;2022-09-09T05:01:43;15.97;57.20
64650;HTU21D;51061;45.258;38.112;2022-09-09T05:04:10;16.22;56.75
64650;HTU21D;51061;45.258;38.112;2022-09-09T05:06:37;16.52;56.17
64650;HTU21D;51061;45.258;38.112;2022-09-09T05:09:03;16.76;55.68
64650;HTU21D;51061;45.258;38.112;2022-09-09T05:11:31;16.89;55.44
64650;HTU21D;51061;45.258;38.112;2022-09-09T05:14:23;16.90;55.40
64650;HTU21D;51061;45.258;38.112;2022-09-09T05:16:49;16.90;55.31
64650;HTU21D;51061;45.258;38.112;2022-09-09T05:19:16;16.89;55.28
64650;HTU21D;51061;45.258;38.112;2022-09-09T05:21:47;17.00;55.09
64650;HTU21D;51061;45.258;38.112;2022-09-09T05:24:17;17.14;54.94
64650;HTU21D;51061;45.258;38.112;2022-09-09T05:26:44;17.30;54.44
64650;HTU21D;51061;45.258;38.112;2022-09-09T05:29:10;17.48;54.17
64650;HTU21D;51061;45.258;38.112;2022-09-09T05:31:37;17.65;53.52
64650;HTU21D;51061;45.258;38.112;2022-09-09T05:34:09;17.82;53.01
64650;HTU21D;51061;45.258;38.112;2022-09-09T05:36:35;18.05;52.64
64650;HTU21D;51061;45.258;38.112;2022-09-09T05:39:01;18.35;51.85
64650;HTU21D;51061;45.258;38.112;2022-09-09T05:41:30;18.51;51.47
64650;HTU21D;51061;45.258;38.112;2022-09-09T05:44:00;18.57;51.28
64650;HTU21D;51061;45.258;38.112;2022-09-09T05:46:26;18.63;51.27
64650;HTU21D;51061;45.258;38.112;2022-09-09T05:48:54;18.71;50.97
64650;HTU21D;51061;45.258;38.112;2022-09-09T05:51:28;18.78;50.61
64650;HTU21D;51061;45.258;38.112;2022-09-09T05:54:02;18.91;50.30
64650;HTU21D;51061;45.258;38.112;2022-09-09T05:56:31;18.91;50.18
64650;HTU21D;51061;45.258;38.112;2022-09-09T05:58:59;18.86;49.92
64650;HTU21D;51061;45.258;38.112;2022-09-09T06:01:29;18.77;50.30
64650;HTU21D;51061;45.258;38.112;2022-09-09T06:03:57;18.73;50.25
64650;HTU21D;51061;45.258;38.112;2022-09-09T06:06:26;18.80;50.08
64650;HTU21D;51061;45.258;38.112;2022-09-09T06:08:56;18.84;49.82
64650;HTU21D;51061;45.258;38.112;2022-09-09T06:11:28;18.96;49.71
64650;HTU21D;51061;45.258;38.112;2022-09-09T06:13:58;19.12;49.79
64650;HTU21D;51061;45.258;38.112;2022-09-09T06:16:27;19.27;49.20
64650;HTU21D;51061;45.258;38.112;2022-09-09T06:18:54;19.37;48.76
64650;HTU21D;51061;45.258;38.112;2022-09-09T06:21:25;19.47;48.77
64650;HTU21D;51061;45.258;38.112;2022-09-09T06:23:52;19.63;48.28
64650;HTU21D;51061;45.258;38.112;2022-09-09T06:26:22;19.76;47.81
64650;HTU21D;51061;45.258;38.112;2022-09-09T06:28:51;19.87;47.38
64650;HTU21D;51061;45.258;38.112;2022-09-09T06:31:21;19.99;47.44
64650;HTU21D;51061;45.258;38.112;2022-09-09T06:33:50;20.16;47.09
64650;HTU21D;51061;45.258;38.112;2022-09-09T06:36:19;20.32;46.55
64650;HTU21D;51061;45.258;38.112;2022-09-09T06:38:45;20.47;45.86
64650;HTU21D;51061;45.258;38.112;2022-09-09T06:41:15;20.68;45.73
64650;HTU21D;51061;45.258;38.112;2022-09-09T06:43:45;20.84;45.03
64650;HTU21D;51061;45.258;38.112;2022-09-09T06:46:14;20.93;44.86
64650;HTU21D;51061;45.258;38.112;2022-09-09T06:48:41;21.17;44.40
64650;HTU21D;51061;45.258;38.112;2022-09-09T06:51:14;21.47;43.67
64650;HTU21D;51061;45.258;38.112;2022-09-09T06:53:43;21.72;43.29
64650;HTU21D;51061;45.258;38.112;2022-09-09T06:58:39;21.76;42.66
64650;HTU21D;51061;45.258;38.112;2022-09-09T07:01:21;21.70;42.72
64650;HTU21D;51061;45.258;38.112;2022-09-09T07:03:50;21.76;42.36
64650;HTU21D;51061;45.258;38.112;2022-09-09T07:06:38;22.03;42.20
64650;HTU21D;51061;45.258;38.112;2022-09-09T07:09:08;22.17;41.53
64650;HTU21D;51061;45.258;38.112;2022-09-09T07:11:38;22.25;41.23
64650;HTU21D;51061;45.258;38.112;2022-09-09T07:14:05;22.37;40.94
64650;HTU21D;51061;45.258;38.112;2022-09-09T07:16:31;22.50;40.62
64650;HTU21D;51061;45.258;38.112;2022-09-09T07:19:01;22.62;40.21
64650;HTU21D;51061;45.258;38.112;2022-09-09T07:21:30;22.62;40.16
64650;HTU21D;51061;45.258;38.112;2022-09-09T07:23:56;22.48;39.88
64650;HTU21D;51061;45.258;38.112;2022-09-09T07:26:25;22.35;40.13
64650;HTU21D;51061;45.258;38.112;2022-09-09T07:28:53;22.35;39.90
64650;HTU21D;51061;45.258;38.112;2022-09-09T07:31:24;22.44;39.61
64650;HTU21D;51061;45.258;38.112;2022-09-09T07:33:51;22.62;39.52
64650;HTU21D;51061;45.258;38.112;2022-09-09T07:36:33;22.81;38.89
64650;HTU21D;51061;45.258;38.112;2022-09-09T07:39:06;22.77;38.86
64650;HTU21D;51061;45.258;38.112;2022-09-09T07:44:06;22.86;38.55
64650;HTU21D;51061;45.258;38.112;2022-09-09T07:46:34;22.99;37.97
64650;HTU21D;51061;45.258;38.112;2022-09-09T07:49:01;23.10;37.73
64650;HTU21D;51061;45.258;38.112;2022-09-09T07:51:32;23.26;37.27
64650;HTU21D;51061;45.258;38.112;2022-09-09T07:54:02;23.51;36.92
64650;HTU21D;51061;45.258;38.112;2022-09-09T07:56:31;23.79;36.57
64650;HTU21D;51061;45.258;38.112;2022-09-09T07:58:58;24.23;35.74
64650;HTU21D;51061;45.258;38.112;2022-09-09T08:01:31;25.03;34.70
64650;HTU21D;51061;45.258;38.112;2022-09-09T08:04:01;25.46;34.05
64650;HTU21D;51061;45.258;38.112;2022-09-09T08:06:34;25.58;33.67
64650;HTU21D;51061;45.258;38.112;2022-09-09T08:09:01;25.80;32.85
64650;HTU21D;51061;45.258;38.112;2022-09-09T08:11:29;26.73;30.95
64650;HTU21D;51061;45.258;38.112;2022-09-09T08:13:56;26.87;30.63
64650;HTU21D;51061;45.258;38.112;2022-09-09T08:16:25;27.94;29.16
64650;HTU21D;51061;45.258;38.112;2022-09-09T08:18:52;29.39;26.79
64650;HTU21D;51061;45.258;38.112;2022-09-09T08:21:22;30.47;25.25
64650;HTU21D;51061;45.258;38.112;2022-09-09T08:23:51;31.38;24.30
64650;HTU21D;51061;45.258;38.112;2022-09-09T08:26:19;31.73;23.24
64650;HTU21D;51061;45.258;38.112;2022-09-09T08:28:50;30.81;23.97
64650;HTU21D;51061;45.258;38.112;2022-09-09T08:31:25;30.38;23.99
64650;HTU21D;51061;45.258;38.112;2022-09-09T08:33:55;30.46;23.50
64650;HTU21D;51061;45.258;38.112;2022-09-09T08:36:24;30.70;22.95
64650;HTU21D;51061;45.258;38.112;2022-09-09T08:38:53;31.45;21.88
64650;HTU21D;51061;45.258;38.112;2022-09-09T08:44:54;32.91;20.93
64650;HTU21D;51061;45.258;38.112;2022-09-09T08:50:16;33.85;19.64
64650;HTU21D;51061;45.258;38.112;2022-09-09T08:55:46;32.68;19.10
64650;HTU21D;51061;45.258;38.112;2022-09-09T08:58:21;30.92;21.24
64650;HTU21D;51061;45.258;38.112;2022-09-09T09:06:39;32.44;18.44
64650;HTU21D;51061;45.258;38.112;2022-09-09T09:12:00;32.23;17.60
64650;HTU21D;51061;45.258;38.112;2022-09-09T09:14:34;32.09;17.57
64650;HTU21D;51061;45.258;38.112;2022-09-09T09:17:06;32.89;17.12
64650;HTU21D;51061;45.258;38.112;2022-09-09T09:19:34;34.08;16.23
64650;HTU21D;51061;45.258;38.112;2022-09-09T09:22:20;35.20;15.58
64650;HTU21D;51061;45.258;38.112;2022-09-09T09:27:39;36.27;13.87
64650;HTU21D;51061;45.258;38.112;2022-09-09T09:30:19;36.57;13.85
64650;HTU21D;51061;45.258;38.112;2022-09-09T09:33:24;37.03;13.75
64650;HTU21D;51061;45.258;38.112;2022-09-09T09:35:53;37.64;12.73
64650;HTU21D;51061;45.258;38.112;2022-09-09T09:38:25;38.06;11.81
64650;HTU21D;51061;45.258;38.112;2022-09-09T09:40:57;37.77;11.57
64650;HTU21D;51061;45.258;38.112;2022-09-09T09:43:33;37.76;11.49
64650;HTU21D;51061;45.258;38.112;2022-09-09T09:46:21;38.00;11.81
64650;HTU21D;51061;45.258;38.112;2022-09-09T09:49:05;38.33;11.49
64650;HTU21D;51061;45.258;38.112;2022-09-09T09:51:33;38.99;10.82
64650;HTU21D;51061;45.258;38.112;2022-09-09T09:56:40;40.23;9.85
64650;HTU21D;51061;45.258;38.112;2022-09-09T10:01:46;40.57;9.14
64650;HTU21D;51061;45.258;38.112;2022-09-09T10:04:22;40.74;9.06
64650;HTU21D;51061;45.258;38.112;2022-09-09T10:06:52;41.01;8.42
64650;HTU21D;51061;45.258;38.112;2022-09-09T10:09:24;41.24;8.40
64650;HTU21D;51061;45.258;38.112;2022-09-09T10:12:24;41.25;8.61
64650;HTU21D;51061;45.258;38.112;2022-09-09T10:21:53;41.67;8.21
64650;HTU21D;51061;45.258;38.112;2022-09-09T10:32:41;42.51;7.36
64650;HTU21D;51061;45.258;38.112;2022-09-09T10:35:27;42.05;7.44
64650;HTU21D;51061;45.258;38.112;2022-09-09T10:51:23;42.69;6.67
64650;HTU21D;51061;45.258;38.112;2022-09-09T10:56:44;42.97;6.47
64650;HTU21D;51061;45.258;38.112;2022-09-09T10:59:18;43.11;6.35
64650;HTU21D;51061;45.258;38.112;2022-09-09T11:02:44;43.49;6.31
64650;HTU21D;51061;45.258;38.112;2022-09-09T11:04:55;43.82;6.37
64650;HTU21D;51061;45.258;38.112;2022-09-09T11:08:16;43.99;6.14
64650;HTU21D;51061;45.258;38.112;2022-09-09T11:13:18;44.18;5.45
64650;HTU21D;51061;45.258;38.112;2022-09-09T11:15:50;43.86;5.35
64650;HTU21D;51061;45.258;38.112;2022-09-09T11:18:20;43.43;5.42
64650;HTU21D;51061;45.258;38.112;2022-09-09T11:20:50;43.29;5.51
64650;HTU21D;51061;45.258;38.112;2022-09-09T11:23:24;43.24;5.44
64650;HTU21D;51061;45.258;38.112;2022-09-09T11:25:57;43.29;5.48
64650;HTU21D;51061;45.258;38.112;2022-09-09T11:31:53;43.98;5.83
64650;HTU21D;51061;45.258;38.112;2022-09-09T11:41:02;40.40;8.27
64650;HTU21D;51061;45.258;38.112;2022-09-09T11:43:37;39.17;9.05
64650;HTU21D;51061;45.258;38.112;2022-09-09T11:46:04;38.11;9.83
64650;HTU21D;51061;45.258;38.112;2022-09-09T11:48:42;37.17;10.27
64650;HTU21D;51061;45.258;38.112;2022-09-09T11:51:12;36.29;10.71
64650;HTU21D;51061;45.258;38.112;2022-09-09T11:53:56;35.30;11.68
64650;HTU21D;51061;45.258;38.112;2022-09-09T11:56:25;34.49;12.17
64650;HTU21D;51061;45.258;38.112;2022-09-09T12:01:37;33.03;13.52
64650;HTU21D;51061;45.258;38.112;2022-09-09T12:04:11;32.52;14.14
64650;HTU21D;51061;45.258;38.112;2022-09-09T12:06:49;32.24;14.45
64650;HTU21D;51061;45.258;38.112;2022-09-09T12:11:51;32.00;15.11
64650;HTU21D;51061;45.258;38.112;2022-09-09T12:17:22;31.61;16.14
64650;HTU21D;51061;45.258;38.112;2022-09-09T12:20:00;31.51;16.48
64650;HTU21D;51061;45.258;38.112;2022-09-09T12:22:54;31.40;16.64
64650;HTU21D;51061;45.258;38.112;2022-09-09T12:28:05;31.06;16.90
64650;HTU21D;51061;45.258;38.112;2022-09-09T12:33:44;30.75;17.90
64650;HTU21D;51061;45.258;38.112;2022-09-09T12:36:14;30.65;17.97
64650;HTU21D;51061;45.258;38.112;2022-09-09T12:38:42;30.57;18.51
64650;HTU21D;51061;45.258;38.112;2022-09-09T12:41:26;30.42;18.51
64650;HTU21D;51061;45.258;38.112;2022-09-09T12:44:08;30.34;18.80
64650;HTU21D;51061;45.258;38.112;2022-09-09T12:46:45;30.23;19.09
64650;HTU21D;51061;45.258;38.112;2022-09-09T12:51:50;30.02;19.41
64650;HTU21D;51061;45.258;38.112;2022-09-09T12:54:16;29.91;19.73
64650;HTU21D;51061;45.258;38.112;2022-09-09T12:56:46;29.83;19.98
64650;HTU21D;51061;45.258;38.112;2022-09-09T12:59:38;29.70;20.02
64650;HTU21D;51061;45.258;38.112;2022-09-09T13:02:21;29.54;20.32
64650;HTU21D;51061;45.258;38.112;2022-09-09T13:04:48;29.48;20.79
64650;HTU21D;51061;45.258;38.112;2022-09-09T13:07:17;29.39;20.89
64650;HTU21D;51061;45.258;38.112;2022-09-09T13:09:45;29.33;21.05
64650;HTU21D;51061;45.258;38.112;2022-09-09T13:12:38;29.18;21.14
64650;HTU21D;51061;45.258;38.112;2022-09-09T13:15:31;29.13;21.35
64650;HTU21D;51061;45.258;38.112;2022-09-09T13:18:06;29.01;21.58
64650;HTU21D;51061;45.258;38.112;2022-09-09T13:20:36;28.90;21.94
64650;HTU21D;51061;45.258;38.112;2022-09-09T13:23:02;28.75;21.95
64650;HTU21D;51061;45.258;38.112;2022-09-09T13:25:29;28.62;22.15
64650;HTU21D;51061;45.258;38.112;2022-09-09T13:30:35;28.44;22.37
64650;HTU21D;51061;45.258;38.112;2022-09-09T13:36:09;28.26;22.70
64650;HTU21D;51061;45.258;38.112;2022-09-09T13:38:39;28.24;22.95
64650;HTU21D;51061;45.258;38.112;2022-09-09T13:41:08;28.19;22.96
64650;HTU21D;51061;45.258;38.112;2022-09-09T13:43:46;28.11;23.23
64650;HTU21D;51061;45.258;38.112;2022-09-09T13:46:36;28.03;23.27
64650;HTU21D;51061;45.258;38.112;2022-09-09T13:51:42;27.89;23.61
64650;HTU21D;51061;45.258;38.112;2022-09-09T13:54:10;27.83;23.82
64650;HTU21D;51061;45.258;38.112;2022-09-09T13:56:38;27.73;24.16
64650;HTU21D;51061;45.258;38.112;2022-09-09T13:59:06;27.65;24.30
64650;HTU21D;51061;45.258;38.112;2022-09-09T14:01:35;27.57;24.55
64650;HTU21D;51061;45.258;38.112;2022-09-09T14:04:01;27.51;24.72
64650;HTU21D;51061;45.258;38.112;2022-09-09T14:06:27;27.44;24.74
64650;HTU21D;51061;45.258;38.112;2022-09-09T14:08:55;27.38;24.86
64650;HTU21D;51061;45.258;38.112;2022-09-09T14:11:21;27.32;25.08
64650;HTU21D;51061;45.258;38.112;2022-09-09T14:13:48;27.25;25.36
64650;HTU21D;51061;45.258;38.112;2022-09-09T14:16:16;27.20;25.65
64650;HTU21D;51061;45.258;38.112;2022-09-09T14:18:43;27.14;25.59
64650;HTU21D;51061;45.258;38.112;2022-09-09T14:21:10;27.08;25.65
64650;HTU21D;51061;45.258;38.112;2022-09-09T14:23:37;27.02;25.85
64650;HTU21D;51061;45.258;38.112;2022-09-09T14:26:07;26.97;25.96
64650;HTU21D;51061;45.258;38.112;2022-09-09T14:28:35;26.93;26.14
64650;HTU21D;51061;45.258;38.112;2022-09-09T14:31:03;26.86;26.30
64650;HTU21D;51061;45.258;38.112;2022-09-09T14:33:30;26.80;26.40
64650;HTU21D;51061;45.258;38.112;2022-09-09T14:36:01;26.71;26.42
64650;HTU21D;51061;45.258;38.112;2022-09-09T14:38:33;26.65;26.49
64650;HTU21D;51061;45.258;38.112;2022-09-09T14:41:00;26.58;26.76
64650;HTU21D;51061;45.258;38.112;2022-09-09T14:43:29;26.54;26.82
64650;HTU21D;51061;45.258;38.112;2022-09-09T14:46:05;26.49;26.93
64650;HTU21D;51061;45.258;38.112;2022-09-09T14:48:31;26.42;27.20
64650;HTU21D;51061;45.258;38.112;2022-09-09T14:51:09;26.31;27.36
64650;HTU21D;51061;45.258;38.112;2022-09-09T14:53:36;26.25;27.66
64650;HTU21D;51061;45.258;38.112;2022-09-09T14:56:07;26.19;27.70
64650;HTU21D;51061;45.258;38.112;2022-09-09T14:58:34;26.12;27.89
64650;HTU21D;51061;45.258;38.112;2022-09-09T15:01:05;26.06;27.93
64650;HTU21D;51061;45.258;38.112;2022-09-09T15:03:32;26.03;28.28
64650;HTU21D;51061;45.258;38.112;2022-09-09T15:06:04;25.97;28.48
64650;HTU21D;51061;45.258;38.112;2022-09-09T15:08:30;25.95;28.52
64650;HTU21D;51061;45.258;38.112;2022-09-09T15:11:02;25.91;28.48
64650;HTU21D;51061;45.258;38.112;2022-09-09T15:13:28;25.89;28.51
64650;HTU21D;51061;45.258;38.112;2022-09-09T15:15:54;25.88;28.80
64650;HTU21D;51061;45.258;38.112;2022-09-09T15:18:21;25.87;28.73
64650;HTU21D;51061;45.258;38.112;2022-09-09T15:20:47;25.80;29.00
64650;HTU21D;51061;45.258;38.112;2022-09-09T15:23:14;25.73;29.17
64650;HTU21D;51061;45.258;38.112;2022-09-09T15:25:53;25.59;29.19
64650;HTU21D;51061;45.258;38.112;2022-09-09T15:28:19;25.53;29.43
64650;HTU21D;51061;45.258;38.112;2022-09-09T15:30:49;25.44;29.51
64650;HTU21D;51061;45.258;38.112;2022-09-09T15:33:16;25.35;29.79
64650;HTU21D;51061;45.258;38.112;2022-09-09T15:35:42;25.28;30.09
64650;HTU21D;51061;45.258;38.112;2022-09-09T15:38:08;25.20;30.34
64650;HTU21D;51061;45.258;38.112;2022-09-09T15:40:34;25.12;30.73
64650;HTU21D;51061;45.258;38.112;2022-09-09T15:43:00;25.04;30.91
64650;HTU21D;51061;45.258;38.112;2022-09-09T15:45:26;24.95;31.18
64650;HTU21D;51061;45.258;38.112;2022-09-09T15:47:56;24.87;31.48
64650;HTU21D;51061;45.258;38.112;2022-09-09T15:50:22;24.82;31.76
64650;HTU21D;51061;45.258;38.112;2022-09-09T15:52:48;24.79;32.00
64650;HTU21D;51061;45.258;38.112;2022-09-09T15:55:14;24.82;32.30
64650;HTU21D;51061;45.258;38.112;2022-09-09T15:57:40;24.80;32.36
64650;HTU21D;51061;45.258;38.112;2022-09-09T16:00:07;24.80;32.53
64650;HTU21D;51061;45.258;38.112;2022-09-09T16:02:33;24.79;32.89
64650;HTU21D;51061;45.258;38.112;2022-09-09T16:04:59;24.77;33.02
64650;HTU21D;51061;45.258;38.112;2022-09-09T16:07:26;24.74;33.23
64650;HTU21D;51061;45.258;38.112;2022-09-09T16:09:52;24.71;33.37
64650;HTU21D;51061;45.258;38.112;2022-09-09T16:12:19;24.62;33.60
64650;HTU21D;51061;45.258;38.112;2022-09-09T16:14:45;24.55;33.86
64650;HTU21D;51061;45.258;38.112;2022-09-09T16:17:11;24.46;34.18
64650;HTU21D;51061;45.258;38.112;2022-09-09T16:19:37;24.38;34.46
64650;HTU21D;51061;45.258;38.112;2022-09-09T16:22:04;24.30;34.66
64650;HTU21D;51061;45.258;38.112;2022-09-09T16:24:32;24.21;34.96
64650;HTU21D;51061;45.258;38.112;2022-09-09T16:26:58;24.13;35.28
64650;HTU21D;51061;45.258;38.112;2022-09-09T16:29:24;24.05;35.44
64650;HTU21D;51061;45.258;38.112;2022-09-09T16:31:53;23.99;35.85
64650;HTU21D;51061;45.258;38.112;2022-09-09T16:34:20;23.90;35.87
64650;HTU21D;51061;45.258;38.112;2022-09-09T16:36:47;23.84;36.02
64650;HTU21D;51061;45.258;38.112;2022-09-09T16:39:16;23.76;36.11
64650;HTU21D;51061;45.258;38.112;2022-09-09T16:41:44;23.68;36.30
64650;HTU21D;51061;45.258;38.112;2022-09-09T16:44:11;23.60;36.39
64650;HTU21D;51061;45.258;38.112;2022-09-09T16:46:40;23.56;36.69
64650;HTU21D;51061;45.258;38.112;2022-09-09T16:49:09;23.50;36.69
64650;HTU21D;51061;45.258;38.112;2022-09-09T16:51:41;23.42;36.66
64650;HTU21D;51061;45.258;38.112;2022-09-09T16:54:09;23.37;36.92
64650;HTU21D;51061;45.258;38.112;2022-09-09T16:56:38;23.32;37.08
64650;HTU21D;51061;45.258;38.112;2022-09-09T16:59:13;23.26;37.06
64650;HTU21D;51061;45.258;38.112;2022-09-09T17:01:41;23.23;37.36
64650;HTU21D;51061;45.258;38.112;2022-09-09T17:04:34;23.14;37.14
64650;HTU21D;51061;45.258;38.112;2022-09-09T17:07:01;23.13;37.70
64650;HTU21D;51061;45.258;38.112;2022-09-09T17:09:29;23.09;37.99
64650;HTU21D;51061;45.258;38.112;2022-09-09T17:11:57;23.05;38.15
64650;HTU21D;51061;45.258;38.112;2022-09-09T17:14:25;22.99;38.14
64650;HTU21D;51061;45.258;38.112;2022-09-09T17:16:51;22.96;38.14
64650;HTU21D;51061;45.258;38.112;2022-09-09T17:19:18;22.95;38.30
64650;HTU21D;51061;45.258;38.112;2022-09-09T17:21:45;22.93;38.34
64650;HTU21D;51061;45.258;38.112;2022-09-09T17:24:13;22.93;38.36
64650;HTU21D;51061;45.258;38.112;2022-09-09T17:26:39;22.92;38.26
64650;HTU21D;51061;45.258;38.112;2022-09-09T17:29:07;22.86;38.41
64650;HTU21D;51061;45.258;38.112;2022-09-09T17:31:33;22.84;38.43
64650;HTU21D;51061;45.258;38.112;2022-09-09T17:34:01;22.80;38.50
64650;HTU21D;51061;45.258;38.112;2022-09-09T17:36:32;22.77;38.49
64650;HTU21D;51061;45.258;38.112;2022-09-09T17:39:00;22.72;38.73
64650;HTU21D;51061;45.258;38.112;2022-09-09T17:41:31;22.69;38.72
64650;HTU21D;51061;45.258;38.112;2022-09-09T17:43:57;22.66;39.25
64650;HTU21D;51061;45.258;38.112;2022-09-09T17:46:36;22.65;39.09
64650;HTU21D;51061;45.258;38.112;2022-09-09T17:49:04;22.61;39.41
64650;HTU21D;51061;45.258;38.112;2022-09-09T17:51:34;22.57;39.46
64650;HTU21D;51061;45.258;38.112;2022-09-09T17:54:03;22.54;39.56
64650;HTU21D;51061;45.258;38.112;2022-09-09T17:56:31;22.50;39.59
64650;HTU21D;51061;45.258;38.112;2022-09-09T17:58:59;22.48;39.59